createdAt,value
2022-08-14T00:00:04.148Z,19.71
2022-08-14T00:02:32.621Z,19.82
2022-08-14T00:05:01.186Z,19.74
2022-08-14T00:07:30.951Z,19.71
2022-08-14T00:10:49.351Z,19.67
2022-08-14T00:12:56.336Z,19.75
2022-08-14T00:15:29.956Z,19.81
2022-08-14T00:18:30.446Z,19.72
2022-08-14T00:21:05.036Z,19.14
2022-08-14T00:23:41.617Z,19.31
2022-08-14T00:26:21.822Z,19.46
2022-08-14T00:28:52.029Z,19.59
2022-08-14T00:31:34.745Z,19.57
2022-08-14T00:34:36.141Z,19.55
2022-08-14T00:36:59.339Z,19.57
2022-08-14T00:39:29.268Z,19.54
2022-08-14T00:41:58.752Z,19.25
2022-08-14T00:44:32.453Z,19.44
2022-08-14T00:47:03.640Z,19.51
2022-08-14T00:49:42.641Z,19.47
2022-08-14T00:52:14.099Z,19.70
2022-08-14T00:54:53.063Z,19.46
2022-08-14T00:57:28.576Z,19.49
2022-08-14T00:59:57.473Z,19.54
2022-08-14T01:02:28.225Z,19.60
2022-08-14T01:05:02.922Z,19.17
2022-08-14T01:07:38.585Z,19.16
2022-08-14T01:10:09.742Z,19.21
2022-08-14T01:12:42.207Z,19.34
2022-08-14T01:15:14.909Z,19.27
2022-08-14T01:18:00.799Z,19.45
2022-08-14T01:20:46.008Z,19.52
2022-08-14T01:23:18.865Z,19.58
2022-08-14T01:25:51.144Z,19.58
2022-08-14T01:28:34.380Z,19.10
2022-08-14T01:31:12.536Z,19.60
2022-08-14T01:35:15.795Z,19.64
2022-08-14T01:36:39.110Z,19.54
2022-08-14T01:39:13.148Z,19.28
2022-08-14T01:41:44.079Z,19.57
2022-08-14T01:44:32.528Z,19.68
2022-08-14T01:47:21.676Z,19.74
2022-08-14T01:50:01.427Z,19.56
2022-08-14T01:52:59.351Z,19.62
2022-08-14T01:55:30.713Z,19.66
2022-08-14T01:58:02.160Z,19.72
2022-08-14T02:00:48.416Z,19.64
2022-08-14T02:03:17.754Z,19.33
2022-08-14T02:05:46.220Z,18.94
2022-08-14T02:08:15.982Z,18.77
2022-08-14T02:11:16.092Z,18.99
2022-08-14T02:13:50.521Z,19.40
2022-08-14T02:16:26.392Z,19.50
2022-08-14T02:18:58.158Z,19.21
2022-08-14T02:21:28.835Z,19.32
2022-08-14T02:24:40.195Z,19.35
2022-08-14T02:28:25.512Z,19.56
2022-08-14T02:30:00.578Z,19.59
2022-08-14T02:32:36.641Z,19.40
2022-08-14T02:35:18.875Z,19.29
2022-08-14T02:37:49.272Z,19.41
2022-08-14T02:40:19.081Z,19.48
2022-08-14T02:42:55.094Z,19.46
2022-08-14T02:45:33.173Z,19.50
2022-08-14T02:48:10.206Z,19.26
2022-08-14T02:50:56.079Z,19.09
2022-08-14T02:53:24.552Z,19.45
2022-08-14T02:55:54.520Z,19.44
2022-08-14T02:58:30.508Z,19.48
2022-08-14T03:01:01.345Z,19.40
2022-08-14T03:03:31.748Z,19.28
2022-08-14T03:06:00.617Z,19.32
2022-08-14T03:08:32.298Z,19.30
2022-08-14T03:11:07.767Z,19.02
2022-08-14T03:13:40.656Z,19.31
2022-08-14T03:16:20.262Z,19.22
2022-08-14T03:18:59.776Z,19.32
2022-08-14T03:21:30.333Z,19.22
2022-08-14T03:24:21.421Z,19.08
2022-08-14T03:26:57.375Z,19.18
2022-08-14T03:29:29.387Z,19.20
2022-08-14T03:31:59.491Z,19.20
2022-08-14T03:34:48.042Z,19.01
2022-08-14T03:37:39.354Z,19.13
2022-08-14T03:40:06.658Z,19.08
2022-08-14T03:42:39.812Z,19.06
2022-08-14T03:45:27.168Z,19.27
2022-08-14T03:48:01.770Z,19.50
2022-08-14T03:50:32.474Z,19.38
2022-08-14T03:53:02.298Z,19.23
2022-08-14T03:55:31.324Z,19.21
2022-08-14T03:58:01.050Z,19.15
2022-08-14T04:00:44.425Z,19.51
2022-08-14T04:03:23.523Z,19.49
2022-08-14T04:05:53.148Z,19.44
2022-08-14T04:08:30.017Z,19.33
2022-08-14T04:11:01.169Z,19.50
2022-08-14T04:13:31.966Z,19.02
2022-08-14T04:16:10.166Z,19.13
2022-08-14T04:18:42.332Z,19.16
2022-08-14T04:21:11.732Z,18.91
2022-08-14T04:23:40.591Z,18.99
2022-08-14T04:26:14.953Z,19.08
2022-08-14T04:29:02.128Z,19.55
2022-08-14T04:33:02.926Z,19.63
2022-08-14T04:34:31.929Z,19.78
2022-08-14T04:37:24.804Z,19.84
2022-08-14T04:40:12.357Z,20.03
2022-08-14T04:42:58.653Z,19.62
2022-08-14T04:45:40.931Z,19.15
2022-08-14T04:48:39.394Z,19.95
2022-08-14T04:51:06.773Z,19.77
2022-08-14T04:53:41.003Z,20.04
2022-08-14T04:56:30.731Z,19.99
2022-08-14T04:59:05.293Z,20.03
2022-08-14T05:01:45.208Z,19.82
2022-08-14T05:04:21.213Z,20.13
2022-08-14T05:06:54.241Z,20.23
2022-08-14T05:09:23.920Z,20.22
2022-08-14T05:11:53.202Z,20.22
2022-08-14T05:14:43.208Z,19.78
2022-08-14T05:17:11.621Z,19.18
2022-08-14T05:19:44.779Z,19.16
2022-08-14T05:22:30.449Z,19.27
2022-08-14T05:24:59.246Z,19.02
2022-08-14T05:27:30.987Z,19.48
2022-08-14T05:30:00.557Z,18.99
2022-08-14T05:32:29.021Z,19.30
2022-08-14T05:35:00.359Z,19.61
2022-08-14T05:37:31.102Z,19.63
2022-08-14T05:40:02.289Z,19.82
2022-08-14T05:42:34.457Z,19.65
2022-08-14T05:45:05.373Z,19.51
2022-08-14T05:47:41.708Z,19.48
2022-08-14T05:50:18.667Z,20.18
2022-08-14T05:52:51.067Z,19.92
2022-08-14T05:55:22.527Z,20.17
2022-08-14T05:57:54.881Z,20.20
2022-08-14T06:00:36.925Z,20.13
2022-08-14T06:03:09.708Z,20.43
2022-08-14T06:05:39.941Z,20.58
2022-08-14T06:08:31.283Z,20.26
2022-08-14T06:11:07.953Z,20.03
2022-08-14T06:13:46.100Z,20.78
2022-08-14T06:16:17.904Z,20.73
2022-08-14T06:18:51.889Z,21.01
2022-08-14T06:21:23.416Z,21.22
2022-08-14T06:23:52.080Z,21.14
2022-08-14T06:26:22.305Z,21.06
2022-08-14T06:28:52.696Z,21.11
2022-08-14T06:31:22.755Z,21.07
2022-08-14T06:35:02.313Z,21.07
2022-08-14T06:36:41.379Z,20.96
2022-08-14T06:39:10.772Z,21.15
2022-08-14T06:41:58.289Z,20.61
2022-08-14T06:44:30.641Z,20.85
2022-08-14T06:47:03.070Z,21.13
2022-08-14T06:49:40.509Z,20.49
2022-08-14T06:52:16.364Z,21.18
2022-08-14T06:54:46.284Z,20.93
2022-08-14T06:57:14.855Z,20.16
2022-08-14T06:59:43.356Z,20.54
2022-08-14T07:02:29.617Z,20.45
2022-08-14T07:05:16.942Z,20.27
2022-08-14T07:07:52.908Z,20.65
2022-08-14T07:10:24.973Z,21.13
2022-08-14T07:13:03.546Z,20.63
2022-08-14T07:15:39.448Z,20.60
2022-08-14T07:18:12.265Z,20.58
2022-08-14T07:20:42.322Z,20.59
2022-08-14T07:23:19.579Z,20.87
2022-08-14T07:25:51.720Z,21.39
2022-08-14T07:28:23.778Z,21.13
2022-08-14T07:30:56.412Z,21.23
2022-08-14T07:33:29.066Z,21.39
2022-08-14T07:36:00.393Z,21.83
2022-08-14T07:38:35.770Z,21.74
2022-08-14T07:41:11.595Z,21.85
2022-08-14T07:43:44.070Z,22.16
2022-08-14T07:46:21.256Z,22.37
2022-08-14T07:48:58.239Z,21.85
2022-08-14T07:51:36.712Z,22.58
2022-08-14T07:54:11.526Z,22.79
2022-08-14T07:56:47.855Z,22.95
2022-08-14T07:59:18.795Z,22.35
2022-08-14T08:01:51.556Z,22.95
2022-08-14T08:04:27.179Z,23.12
2022-08-14T08:06:56.907Z,22.41
2022-08-14T08:09:31.956Z,22.74
2022-08-14T08:12:04.626Z,22.82
2022-08-14T08:14:56.541Z,22.87
2022-08-14T08:17:25.111Z,22.82
2022-08-14T08:19:53.624Z,22.52
2022-08-14T08:22:23.897Z,22.71
2022-08-14T08:24:58.038Z,22.80
2022-08-14T08:27:26.567Z,22.59
2022-08-14T08:30:10.217Z,22.54
2022-08-14T08:32:41.944Z,22.58
2022-08-14T08:35:21.249Z,21.86
2022-08-14T08:37:53.658Z,21.81
2022-08-14T08:40:35.875Z,22.36
2022-08-14T08:43:19.284Z,21.78
2022-08-14T08:45:55.526Z,22.06
2022-08-14T08:48:35.607Z,22.14
2022-08-14T08:51:06.148Z,22.01
2022-08-14T08:53:36.067Z,21.93
2022-08-14T08:56:06.217Z,22.21
2022-08-14T08:58:39.662Z,22.48
2022-08-14T09:01:09.187Z,22.48
2022-08-14T09:03:44.130Z,22.79
2022-08-14T09:07:01.114Z,22.93
2022-08-14T09:09:01.167Z,22.70
2022-08-14T09:11:31.562Z,22.81
2022-08-14T09:14:00.673Z,22.31
2022-08-14T09:16:29.421Z,21.96
2022-08-14T09:18:58.248Z,21.77
2022-08-14T09:21:31.353Z,21.71
2022-08-14T09:24:30.248Z,21.72
2022-08-14T09:26:50.800Z,21.19
2022-08-14T09:29:23.440Z,21.36
2022-08-14T09:31:58.129Z,21.31
2022-08-14T09:34:58.162Z,21.64
2022-08-14T09:37:39.432Z,21.51
2022-08-14T09:40:21.206Z,21.82
2022-08-14T09:43:02.112Z,21.43
2022-08-14T09:45:40.350Z,21.32
2022-08-14T09:48:27.471Z,21.18
2022-08-14T09:54:19.239Z,21.65
2022-08-14T09:56:33.070Z,20.70
2022-08-14T09:59:15.158Z,20.08
2022-08-14T10:01:45.951Z,20.84
2022-08-14T10:04:35.690Z,21.31
2022-08-14T10:07:06.043Z,21.13
2022-08-14T10:10:00.133Z,21.17
2022-08-14T10:12:52.939Z,21.42
2022-08-14T10:15:27.834Z,21.37
2022-08-14T10:18:08.242Z,20.78
2022-08-14T10:20:45.001Z,20.41
2022-08-14T10:23:18.468Z,20.67
2022-08-14T10:25:51.262Z,20.63
2022-08-14T10:28:39.451Z,20.69
2022-08-14T10:31:29.724Z,21.14
2022-08-14T10:34:13.357Z,21.37
2022-08-14T10:36:47.475Z,21.08
2022-08-14T10:39:21.108Z,20.71
2022-08-14T10:41:53.967Z,21.17
2022-08-14T10:44:29.857Z,21.39
2022-08-14T10:47:40.744Z,21.72
2022-08-14T10:50:00.813Z,21.94
2022-08-14T10:52:33.935Z,22.24
2022-08-14T10:55:14.111Z,22.09
2022-08-14T10:57:51.425Z,22.14
2022-08-14T11:00:30.396Z,22.11
2022-08-14T11:03:09.809Z,22.44
2022-08-14T11:05:43.310Z,22.61
2022-08-14T11:08:14.421Z,23.12
2022-08-14T11:10:49.313Z,23.20
2022-08-14T11:13:23.871Z,23.99
2022-08-14T11:15:53.681Z,24.50
2022-08-14T11:18:35.801Z,24.97
2022-08-14T11:21:08.349Z,25.08
2022-08-14T11:23:41.254Z,25.00
2022-08-14T11:26:14.190Z,25.17
2022-08-14T11:28:49.620Z,25.15
2022-08-14T11:31:21.899Z,25.19
2022-08-14T11:33:58.258Z,25.50
2022-08-14T11:36:35.331Z,24.48
2022-08-14T11:39:33.497Z,24.50
2022-08-14T11:42:55.433Z,24.48
2022-08-14T11:45:00.059Z,24.51
2022-08-14T11:47:35.332Z,24.73
2022-08-14T11:50:34.056Z,24.50
2022-08-14T11:53:07.192Z,24.40
2022-08-14T11:55:38.159Z,24.91
2022-08-14T11:58:10.505Z,25.04
2022-08-14T12:00:48.772Z,25.44
2022-08-14T12:03:23.014Z,25.34
2022-08-14T12:06:09.534Z,25.83
2022-08-14T12:08:59.887Z,25.82
2022-08-14T12:11:44.310Z,25.78
2022-08-14T12:14:30.143Z,25.74
2022-08-14T12:17:12.166Z,26.01
2022-08-14T12:19:51.555Z,25.84
2022-08-14T12:22:34.710Z,25.78
2022-08-14T12:25:10.000Z,26.13
2022-08-14T12:27:51.749Z,26.07
2022-08-14T12:30:42.380Z,25.97
2022-08-14T12:33:30.574Z,26.12
2022-08-14T12:36:04.500Z,26.42
2022-08-14T12:38:38.505Z,26.47
2022-08-14T12:41:20.506Z,25.86
2022-08-14T12:43:53.881Z,26.18
2022-08-14T12:46:30.507Z,26.79
2022-08-14T12:49:02.546Z,27.25
2022-08-14T12:51:31.603Z,26.78
2022-08-14T12:54:02.026Z,27.90
2022-08-14T12:56:33.772Z,27.95
2022-08-14T12:59:04.186Z,28.54
2022-08-14T13:02:00.285Z,28.48
2022-08-14T13:04:23.535Z,29.08
2022-08-14T13:06:53.132Z,29.89
2022-08-14T13:09:36.444Z,30.07
2022-08-14T13:12:32.087Z,29.48
2022-08-14T13:15:00.012Z,28.96
2022-08-14T13:17:38.079Z,29.11
2022-08-14T13:20:10.361Z,29.14
2022-08-14T13:22:52.365Z,29.61
2022-08-14T13:25:25.120Z,29.57
2022-08-14T13:27:57.729Z,29.94
2022-08-14T13:30:27.811Z,29.89
2022-08-14T13:32:58.410Z,29.86
2022-08-14T13:35:27.409Z,30.43
2022-08-14T13:37:57.577Z,29.75
2022-08-14T13:40:27.823Z,30.37
2022-08-14T13:42:57.555Z,30.45
2022-08-14T13:45:59.640Z,30.14
2022-08-14T13:48:32.150Z,30.42
2022-08-14T13:51:10.716Z,30.68
2022-08-14T13:54:06.955Z,30.48
2022-08-14T13:56:40.167Z,30.47
2022-08-14T13:59:10.028Z,30.16
2022-08-14T14:01:43.604Z,30.56
2022-08-14T14:04:18.913Z,29.69
2022-08-14T14:06:50.764Z,29.45
2022-08-14T14:09:37.761Z,30.05
2022-08-14T14:12:37.969Z,30.12
2022-08-14T14:15:09.626Z,30.24
2022-08-14T14:17:39.071Z,30.11
2022-08-14T14:20:34.018Z,30.12
2022-08-14T14:23:01.594Z,29.86
2022-08-14T14:25:45.849Z,29.99
2022-08-14T14:28:23.828Z,29.39
2022-08-14T14:30:57.190Z,29.05
2022-08-14T14:33:46.978Z,29.56
2022-08-14T14:36:21.236Z,29.57
2022-08-14T14:38:53.918Z,29.71
2022-08-14T14:41:23.788Z,29.55
2022-08-14T14:43:54.545Z,29.24
2022-08-14T14:46:36.617Z,29.18
2022-08-14T14:49:07.818Z,29.02
2022-08-14T14:51:41.063Z,29.01
2022-08-14T14:54:13.025Z,28.66
2022-08-14T14:56:47.491Z,28.62
2022-08-14T14:59:21.471Z,28.87
2022-08-14T15:01:51.400Z,28.75
2022-08-14T15:04:21.036Z,28.52
2022-08-14T15:06:50.163Z,28.92
2022-08-14T15:09:23.644Z,29.18
2022-08-14T15:11:52.351Z,28.26
2022-08-14T15:14:54.664Z,28.47
2022-08-14T15:17:10.650Z,28.66
2022-08-14T15:19:39.732Z,28.15
2022-08-14T15:22:10.658Z,27.73
2022-08-14T15:24:40.042Z,28.16
2022-08-14T15:27:09.427Z,28.22
2022-08-14T15:29:43.235Z,28.04
2022-08-14T15:32:11.782Z,27.98
2022-08-14T15:34:50.762Z,27.46
2022-08-14T15:37:22.940Z,27.83
2022-08-14T15:39:52.714Z,27.36
2022-08-14T15:42:23.175Z,26.86
2022-08-14T15:44:58.061Z,26.42
2022-08-14T15:47:31.515Z,26.57
2022-08-14T15:50:01.449Z,25.98
2022-08-14T15:52:32.914Z,25.54
2022-08-14T15:55:15.188Z,24.99
2022-08-14T15:58:01.812Z,25.12
2022-08-14T16:00:53.181Z,24.92
2022-08-14T16:03:27.761Z,24.59
2022-08-14T16:06:04.727Z,24.40
2022-08-14T16:08:34.241Z,24.41
2022-08-14T16:11:05.093Z,24.08
2022-08-14T16:13:39.661Z,23.75
2022-08-14T16:16:34.736Z,23.60
2022-08-14T16:19:10.336Z,23.70
2022-08-14T16:22:57.170Z,23.51
2022-08-14T16:24:59.828Z,23.45
2022-08-14T16:27:37.095Z,23.11
2022-08-14T16:30:11.402Z,22.91
2022-08-14T16:32:55.382Z,22.82
2022-08-14T16:35:26.491Z,22.98
2022-08-14T16:38:44.557Z,22.50
2022-08-14T16:41:23.255Z,22.46
2022-08-14T16:43:59.426Z,22.70
2022-08-14T16:46:31.427Z,22.42
2022-08-14T16:49:02.856Z,22.35
2022-08-14T16:51:36.197Z,22.26
2022-08-14T16:54:33.743Z,22.22
2022-08-14T16:57:13.545Z,22.74
2022-08-14T16:59:52.430Z,22.59
2022-08-14T17:02:39.035Z,22.13
2022-08-14T17:05:22.056Z,22.03
2022-08-14T17:08:32.887Z,21.87
2022-08-14T17:11:09.730Z,21.96
2022-08-14T17:13:58.794Z,22.20
2022-08-14T17:16:37.508Z,21.37
2022-08-14T17:19:13.842Z,21.78
2022-08-14T17:21:47.141Z,21.71
2022-08-14T17:24:57.849Z,21.80
2022-08-14T17:27:07.474Z,21.78
2022-08-14T17:29:54.173Z,21.62
2022-08-14T17:32:44.205Z,21.45
2022-08-14T17:35:26.995Z,21.46
2022-08-14T17:38:39.134Z,21.65
2022-08-14T17:41:27.567Z,21.85
2022-08-14T17:44:21.574Z,21.87
2022-08-14T17:46:55.126Z,21.62
2022-08-14T17:49:27.241Z,21.64
2022-08-14T17:52:17.223Z,21.40
2022-08-14T17:54:59.135Z,21.08
2022-08-14T17:57:45.452Z,21.89
2022-08-14T18:00:17.872Z,22.15
2022-08-14T18:02:50.644Z,22.14
2022-08-14T18:05:23.297Z,21.90
2022-08-14T18:08:32.357Z,21.80
2022-08-14T18:11:00.449Z,21.26
2022-08-14T18:13:51.976Z,21.11
2022-08-14T18:16:19.677Z,20.59
2022-08-14T18:18:51.035Z,20.86
2022-08-14T18:21:23.785Z,20.31
2022-08-14T18:24:20.058Z,20.60
2022-08-14T18:27:08.669Z,20.60
2022-08-14T18:29:43.851Z,20.69
2022-08-14T18:32:47.477Z,20.59
2022-08-14T18:35:46.188Z,20.43
2022-08-14T18:38:26.203Z,19.46
2022-08-14T18:41:36.581Z,20.63
2022-08-14T18:44:10.932Z,20.82
2022-08-14T18:47:25.545Z,20.71
2022-08-14T18:50:27.963Z,20.56
2022-08-14T18:52:55.462Z,20.48
2022-08-14T18:55:53.852Z,20.51
2022-08-14T18:58:31.208Z,20.59
2022-08-14T19:01:06.293Z,20.32
2022-08-14T19:03:57.388Z,20.27
2022-08-14T19:07:16.172Z,20.10
2022-08-14T19:09:59.132Z,20.24
2022-08-14T19:13:12.166Z,20.07
2022-08-14T19:15:44.015Z,18.79
2022-08-14T19:18:28.179Z,19.99
2022-08-14T19:20:59.610Z,19.96
2022-08-14T19:23:42.482Z,19.99
2022-08-14T19:26:36.199Z,19.36
2022-08-14T19:29:37.629Z,19.61
2022-08-14T19:32:39.369Z,19.36
2022-08-14T19:35:49.816Z,19.27
2022-08-14T19:38:52.138Z,19.17
2022-08-14T19:41:23.093Z,19.20
2022-08-14T19:43:57.132Z,19.27
2022-08-14T19:46:37.511Z,19.24
2022-08-14T19:49:08.964Z,19.14
2022-08-14T19:51:47.154Z,19.12
2022-08-14T19:54:18.264Z,19.22
2022-08-14T19:56:47.784Z,19.13
2022-08-14T19:59:19.891Z,19.43
2022-08-14T20:01:52.659Z,19.28
2022-08-14T20:04:46.327Z,19.32
2022-08-14T20:07:59.433Z,19.23
2022-08-14T20:11:12.722Z,19.06
2022-08-14T20:13:25.250Z,19.09
2022-08-14T20:16:12.277Z,18.93
2022-08-14T20:18:51.606Z,18.37
2022-08-14T20:21:21.762Z,19.11
2022-08-14T20:23:51.765Z,19.22
2022-08-14T20:26:31.207Z,19.34
2022-08-14T20:29:04.829Z,19.64
2022-08-14T20:31:36.417Z,19.40
2022-08-14T20:34:24.638Z,19.38
2022-08-14T20:37:09.969Z,19.60
2022-08-14T20:39:53.650Z,19.91
2022-08-14T20:42:55.602Z,20.20
2022-08-14T20:45:29.068Z,19.89
2022-08-14T20:48:01.347Z,20.04
2022-08-14T20:50:31.507Z,20.35
2022-08-14T20:53:05.981Z,20.13
2022-08-14T20:55:45.098Z,20.37
2022-08-14T20:58:43.167Z,20.40
2022-08-14T21:01:33.804Z,19.89
2022-08-14T21:04:12.139Z,20.24
2022-08-14T21:07:22.969Z,20.54
2022-08-14T21:10:05.691Z,20.49
2022-08-14T21:12:33.709Z,20.53
2022-08-14T21:15:03.065Z,20.23
2022-08-14T21:17:37.232Z,20.51
2022-08-14T21:20:26.401Z,20.37
2022-08-14T21:23:00.457Z,20.54
2022-08-14T21:25:31.750Z,20.57
2022-08-14T21:28:04.027Z,20.41
2022-08-14T21:30:46.576Z,20.32
2022-08-14T21:33:21.631Z,20.13
2022-08-14T21:35:55.482Z,19.76
2022-08-14T21:38:33.904Z,19.48
2022-08-14T21:41:42.325Z,19.37
2022-08-14T21:44:18.009Z,19.69
2022-08-14T21:46:51.206Z,19.75
2022-08-14T21:49:38.243Z,19.80
2022-08-14T21:52:49.367Z,19.82
2022-08-14T21:55:09.338Z,20.08
2022-08-14T21:58:03.764Z,20.11
2022-08-14T22:00:35.532Z,19.99
2022-08-14T22:03:06.411Z,20.09
2022-08-14T22:05:40.663Z,20.00
2022-08-14T22:08:11.941Z,19.48
2022-08-14T22:10:42.807Z,19.21
2022-08-14T22:13:14.790Z,18.58
2022-08-14T22:15:50.041Z,18.38
2022-08-14T22:18:21.202Z,18.38
2022-08-14T22:20:54.066Z,18.50
2022-08-14T22:23:27.165Z,18.53
2022-08-14T22:25:56.402Z,18.78
2022-08-14T22:28:33.120Z,19.15
2022-08-14T22:31:02.958Z,19.52
2022-08-14T22:33:33.508Z,19.59
2022-08-14T22:36:26.286Z,19.40
2022-08-14T22:38:54.950Z,19.34
2022-08-14T22:41:26.761Z,19.38
2022-08-14T22:44:00.375Z,19.19
2022-08-14T22:46:29.713Z,19.36
2022-08-14T22:48:58.666Z,19.47
2022-08-14T22:51:29.094Z,19.68
2022-08-14T22:53:59.327Z,19.77
2022-08-14T22:56:30.576Z,19.78
2022-08-14T22:59:00.726Z,19.80
2022-08-14T23:01:57.223Z,19.78
2022-08-14T23:04:34.425Z,19.72
2022-08-14T23:07:22.074Z,19.81
2022-08-14T23:09:56.699Z,19.69
2022-08-14T23:12:29.248Z,19.71
2022-08-14T23:14:59.326Z,19.70
2022-08-14T23:17:38.767Z,19.64
2022-08-14T23:20:18.843Z,19.59
2022-08-14T23:22:52.684Z,19.53
2022-08-14T23:25:57.179Z,18.70
2022-08-14T23:28:32.932Z,18.99
2022-08-14T23:31:05.922Z,19.28
2022-08-14T23:33:45.778Z,19.33
2022-08-14T23:36:32.164Z,19.36
2022-08-14T23:39:10.351Z,19.26
2022-08-14T23:41:46.932Z,19.34
2022-08-14T23:44:22.324Z,19.35
2022-08-14T23:46:56.452Z,19.34
2022-08-14T23:49:25.828Z,19.35
2022-08-14T23:51:59.741Z,19.32
2022-08-14T23:54:48.324Z,19.26
2022-08-14T23:57:19.117Z,18.88
2022-08-14T23:59:54.641Z,18.30
